createdAt,value
2023-01-26T00:00:45.595Z,0.00
2023-01-26T00:01:45.585Z,0.00
2023-01-26T00:02:45.596Z,0.00
2023-01-26T00:03:45.611Z,0.00
2023-01-26T00:04:45.629Z,0.00
2023-01-26T00:05:45.531Z,0.00
2023-01-26T00:06:45.522Z,0.00
2023-01-26T00:07:45.621Z,0.00
2023-01-26T00:08:45.508Z,0.00
2023-01-26T00:09:45.504Z,0.00
2023-01-26T00:10:45.478Z,0.00
2023-01-26T00:11:45.451Z,0.00
2023-01-26T00:12:45.447Z,0.00
2023-01-26T00:13:45.443Z,0.00
2023-01-26T00:14:45.444Z,0.00
2023-01-26T00:15:45.443Z,0.00
2023-01-26T00:16:45.392Z,0.00
2023-01-26T00:17:45.403Z,0.00
2023-01-26T00:18:45.367Z,0.00
2023-01-26T00:19:45.348Z,0.00
2023-01-26T00:20:45.346Z,0.00
2023-01-26T00:21:45.337Z,0.00
2023-01-26T00:22:45.335Z,0.00
2023-01-26T00:23:45.307Z,0.00
2023-01-26T00:24:45.292Z,0.00
2023-01-26T00:25:45.277Z,0.00
2023-01-26T00:26:45.271Z,0.00
2023-01-26T00:27:45.275Z,0.00
2023-01-26T00:28:45.238Z,0.00
2023-01-26T00:29:45.271Z,0.00
2023-01-26T00:30:45.262Z,0.00
2023-01-26T00:31:45.266Z,0.00
2023-01-26T00:32:45.205Z,0.00
2023-01-26T00:33:45.213Z,0.00
2023-01-26T00:34:45.163Z,0.00
2023-01-26T00:35:45.157Z,0.00
2023-01-26T00:36:45.141Z,0.00
2023-01-26T00:37:45.148Z,0.00
2023-01-26T00:38:45.114Z,0.00
2023-01-26T00:39:45.137Z,0.00
2023-01-26T00:40:45.085Z,0.00
2023-01-26T00:41:45.078Z,0.00
2023-01-26T00:42:45.063Z,0.00
2023-01-26T00:43:45.059Z,0.00
2023-01-26T00:44:45.053Z,0.00
2023-01-26T00:45:45.028Z,0.00
2023-01-26T00:46:45.065Z,0.00
2023-01-26T00:47:45.001Z,0.00
2023-01-26T00:48:44.993Z,0.00
2023-01-26T00:49:44.998Z,0.00
2023-01-26T00:50:44.980Z,0.00
2023-01-26T00:51:44.951Z,0.00
2023-01-26T00:52:44.935Z,0.00
2023-01-26T00:53:44.925Z,0.00
2023-01-26T00:54:44.949Z,0.00
2023-01-26T00:55:44.899Z,0.00
2023-01-26T00:56:44.884Z,0.00
2023-01-26T00:57:44.900Z,0.00
2023-01-26T00:58:44.867Z,0.00
2023-01-26T00:59:44.850Z,0.00
2023-01-26T01:00:44.845Z,0.00
2023-01-26T01:01:44.870Z,0.00
2023-01-26T01:02:44.840Z,0.00
2023-01-26T01:03:44.800Z,0.00
2023-01-26T01:04:44.781Z,0.00
2023-01-26T01:05:44.770Z,0.00
2023-01-26T01:06:44.751Z,0.00
2023-01-26T01:07:44.811Z,0.00
2023-01-26T01:08:44.735Z,0.00
2023-01-26T01:09:44.725Z,0.00
2023-01-26T01:10:44.706Z,0.00
2023-01-26T01:11:44.697Z,0.00
2023-01-26T01:12:44.697Z,0.00
2023-01-26T01:13:44.677Z,0.00
2023-01-26T01:14:44.651Z,0.00
2023-01-26T01:15:44.646Z,0.00
2023-01-26T01:16:44.628Z,0.00
2023-01-26T01:17:44.638Z,0.00
2023-01-26T01:18:44.614Z,0.00
2023-01-26T01:19:44.591Z,0.00
2023-01-26T01:20:44.572Z,0.00
2023-01-26T01:21:44.562Z,0.00
2023-01-26T01:22:44.571Z,0.00
2023-01-26T01:23:44.545Z,0.00
2023-01-26T01:24:44.529Z,0.00
2023-01-26T01:25:44.519Z,0.00
2023-01-26T01:26:44.511Z,0.00
2023-01-26T01:27:44.504Z,0.00
2023-01-26T01:28:44.475Z,0.00
2023-01-26T01:29:44.471Z,0.00
2023-01-26T01:30:44.477Z,0.00
2023-01-26T01:31:44.508Z,0.00
2023-01-26T01:32:44.438Z,0.00
2023-01-26T01:33:44.449Z,0.00
2023-01-26T01:34:44.397Z,0.00
2023-01-26T01:35:44.394Z,0.00
2023-01-26T01:36:44.372Z,0.00
2023-01-26T01:37:44.382Z,0.00
2023-01-26T01:38:44.358Z,0.00
2023-01-26T01:39:44.374Z,0.00
2023-01-26T01:40:44.323Z,0.00
2023-01-26T01:41:44.328Z,0.00
2023-01-26T01:42:44.291Z,0.00
2023-01-26T01:43:44.279Z,0.00
2023-01-26T01:44:44.290Z,0.00
2023-01-26T01:45:44.259Z,0.00
2023-01-26T01:46:44.333Z,0.00
2023-01-26T01:47:44.238Z,0.00
2023-01-26T01:48:44.237Z,0.00
2023-01-26T01:49:44.216Z,0.00
2023-01-26T01:50:44.196Z,0.00
2023-01-26T01:51:44.187Z,0.00
2023-01-26T01:52:44.168Z,0.00
2023-01-26T01:53:44.194Z,0.00
2023-01-26T01:54:44.150Z,0.00
2023-01-26T01:55:44.133Z,0.00
2023-01-26T01:56:44.122Z,0.00
2023-01-26T01:57:44.117Z,0.00
2023-01-26T01:58:44.111Z,0.00
2023-01-26T01:59:44.084Z,0.00
2023-01-26T02:00:44.102Z,0.00
2023-01-26T02:01:44.109Z,0.00
2023-01-26T02:02:44.044Z,0.00
2023-01-26T02:03:44.036Z,0.00
2023-01-26T02:04:44.009Z,0.00
2023-01-26T02:05:44.032Z,0.00
2023-01-26T02:06:43.988Z,0.00
2023-01-26T02:07:43.975Z,0.00
2023-01-26T02:08:43.968Z,0.00
2023-01-26T02:09:43.958Z,0.00
2023-01-26T02:10:43.939Z,0.00
2023-01-26T02:11:43.929Z,0.00
2023-01-26T02:12:43.905Z,0.00
2023-01-26T02:13:43.921Z,0.00
2023-01-26T02:14:43.887Z,0.00
2023-01-26T02:15:43.886Z,0.00
2023-01-26T02:16:43.856Z,0.00
2023-01-26T02:17:43.854Z,0.00
2023-01-26T02:18:43.850Z,0.00
2023-01-26T02:19:43.822Z,0.00
2023-01-26T02:20:43.836Z,0.00
2023-01-26T02:21:43.796Z,0.00
2023-01-26T02:22:43.800Z,0.00
2023-01-26T02:23:43.780Z,0.00
2023-01-26T02:24:43.755Z,0.00
2023-01-26T02:25:43.771Z,0.00
2023-01-26T02:26:43.743Z,0.00
2023-01-26T02:27:43.722Z,0.00
2023-01-26T02:28:43.724Z,0.00
2023-01-26T02:29:43.714Z,0.00
2023-01-26T02:30:43.726Z,0.00
2023-01-26T02:31:43.735Z,0.00
2023-01-26T02:32:43.662Z,0.00
2023-01-26T02:33:43.687Z,0.00
2023-01-26T02:34:43.719Z,0.00
2023-01-26T02:35:43.629Z,0.00
2023-01-26T02:36:43.608Z,0.00
2023-01-26T02:37:43.589Z,0.00
2023-01-26T02:38:43.595Z,0.00
2023-01-26T02:39:43.575Z,0.00
2023-01-26T02:40:43.571Z,0.00
2023-01-26T02:41:43.529Z,0.00
2023-01-26T02:42:43.555Z,0.00
2023-01-26T02:43:43.535Z,0.00
2023-01-26T02:44:43.506Z,0.00
2023-01-26T02:45:43.516Z,0.00
2023-01-26T02:46:43.506Z,0.00
2023-01-26T02:47:43.472Z,0.00
2023-01-26T02:48:43.456Z,0.00
2023-01-26T02:49:43.836Z,0.00
2023-01-26T02:50:43.427Z,0.00
2023-01-26T02:51:43.418Z,0.00
2023-01-26T02:52:43.403Z,0.00
2023-01-26T02:53:43.408Z,0.00
2023-01-26T02:54:43.401Z,0.00
2023-01-26T02:55:43.371Z,0.00
2023-01-26T02:56:43.363Z,0.00
2023-01-26T02:57:43.344Z,0.00
2023-01-26T02:58:43.328Z,0.00
2023-01-26T02:59:43.367Z,0.00
2023-01-26T03:00:43.366Z,0.00
2023-01-26T03:01:43.323Z,0.00
2023-01-26T03:02:43.275Z,0.00
2023-01-26T03:03:43.270Z,0.00
2023-01-26T03:04:43.257Z,0.00
2023-01-26T03:05:43.269Z,0.00
2023-01-26T03:06:43.225Z,0.00
2023-01-26T03:07:43.228Z,0.00
2023-01-26T03:08:43.218Z,0.00
2023-01-26T03:09:43.211Z,0.00
2023-01-26T03:10:43.175Z,0.00
2023-01-26T03:11:43.172Z,0.00
2023-01-26T03:12:43.158Z,0.00
2023-01-26T03:13:43.133Z,0.00
2023-01-26T03:14:43.191Z,0.00
2023-01-26T03:15:43.374Z,0.00
2023-01-26T03:16:43.106Z,0.00
2023-01-26T03:17:43.095Z,0.00
2023-01-26T03:18:43.093Z,0.00
2023-01-26T03:19:43.098Z,0.00
2023-01-26T03:20:43.053Z,0.00
2023-01-26T03:21:43.078Z,0.00
2023-01-26T03:22:43.029Z,0.00
2023-01-26T03:23:43.015Z,0.00
2023-01-26T03:24:43.028Z,0.00
2023-01-26T03:25:42.998Z,0.00
2023-01-26T03:26:42.984Z,0.00
2023-01-26T03:27:42.971Z,0.00
2023-01-26T03:28:42.948Z,0.00
2023-01-26T03:29:42.944Z,0.00
2023-01-26T03:30:42.991Z,0.00
2023-01-26T03:31:42.975Z,0.00
2023-01-26T03:32:42.904Z,0.00
2023-01-26T03:33:42.901Z,0.00
2023-01-26T03:34:42.876Z,0.00
2023-01-26T03:35:42.937Z,0.00
2023-01-26T03:36:42.848Z,0.00
2023-01-26T03:37:42.842Z,0.00
2023-01-26T03:38:42.833Z,0.00
2023-01-26T03:39:42.818Z,0.00
2023-01-26T03:40:42.814Z,0.00
2023-01-26T03:41:42.813Z,0.00
2023-01-26T03:42:42.778Z,0.00
2023-01-26T03:43:42.766Z,0.00
2023-01-26T03:44:42.752Z,0.00
2023-01-26T03:45:42.745Z,0.00
2023-01-26T03:46:42.760Z,0.00
2023-01-26T03:47:42.715Z,0.00
2023-01-26T03:48:42.708Z,0.00
2023-01-26T03:49:42.697Z,0.00
2023-01-26T03:50:42.676Z,0.00
2023-01-26T03:51:42.687Z,0.00
2023-01-26T03:52:42.644Z,0.00
2023-01-26T03:53:42.667Z,0.00
2023-01-26T03:54:42.629Z,0.00
2023-01-26T03:55:42.621Z,0.00
2023-01-26T03:56:42.623Z,0.00
2023-01-26T03:57:42.608Z,0.00
2023-01-26T03:58:42.576Z,0.00
2023-01-26T03:59:42.585Z,0.00
2023-01-26T04:00:42.585Z,0.00
2023-01-26T04:01:42.612Z,0.00
2023-01-26T04:02:42.520Z,0.00
2023-01-26T04:03:42.514Z,0.00
2023-01-26T04:04:42.501Z,0.00
2023-01-26T04:05:42.515Z,0.00
2023-01-26T04:06:43.198Z,0.00
2023-01-26T04:07:42.458Z,0.00
2023-01-26T04:08:42.450Z,0.00
2023-01-26T04:09:42.463Z,0.00
2023-01-26T04:10:42.443Z,0.00
2023-01-26T04:11:42.417Z,0.00
2023-01-26T04:12:42.398Z,0.00
2023-01-26T04:13:42.399Z,0.00
2023-01-26T04:14:49.771Z,0.00
2023-01-26T04:16:53.064Z,0.00
2023-01-26T04:17:54.042Z,0.00
2023-01-26T04:18:54.036Z,0.00
2023-01-26T04:19:54.037Z,0.00
2023-01-26T04:20:54.010Z,0.00
2023-01-26T04:21:54.041Z,0.00
2023-01-26T04:22:54.002Z,0.00
2023-01-26T04:23:54.117Z,0.00
2023-01-26T04:24:53.955Z,0.00
2023-01-26T04:25:53.969Z,0.00
2023-01-26T04:26:53.983Z,0.00
2023-01-26T04:27:53.937Z,0.00
2023-01-26T04:28:53.934Z,0.00
2023-01-26T04:29:53.909Z,0.00
2023-01-26T04:30:54.043Z,0.00
2023-01-26T04:31:54.012Z,0.00
2023-01-26T04:32:53.916Z,0.00
2023-01-26T04:33:53.870Z,0.00
2023-01-26T04:34:53.876Z,0.00
2023-01-26T04:35:53.842Z,0.00
2023-01-26T04:36:53.882Z,0.00
2023-01-26T04:37:53.817Z,0.00
2023-01-26T04:38:53.793Z,0.00
2023-01-26T04:39:53.777Z,0.00
2023-01-26T04:40:53.772Z,0.00
2023-01-26T04:41:53.786Z,0.00
2023-01-26T04:42:53.856Z,0.00
2023-01-26T04:43:53.732Z,0.00
2023-01-26T04:44:53.771Z,0.00
2023-01-26T04:45:53.857Z,0.00
2023-01-26T04:46:53.720Z,0.00
2023-01-26T04:47:53.682Z,0.00
2023-01-26T04:48:53.673Z,0.00
2023-01-26T04:49:53.678Z,0.00
2023-01-26T04:50:53.662Z,0.00
2023-01-26T04:51:53.646Z,0.00
2023-01-26T04:52:53.621Z,0.00
2023-01-26T04:53:53.734Z,0.00
2023-01-26T04:54:53.593Z,0.00
2023-01-26T04:55:53.578Z,0.00
2023-01-26T04:56:53.576Z,0.00
2023-01-26T04:57:53.581Z,0.00
2023-01-26T04:58:53.611Z,0.00
2023-01-26T04:59:53.574Z,0.00
2023-01-26T05:00:53.543Z,0.00
2023-01-26T05:01:53.504Z,0.00
2023-01-26T05:02:53.597Z,0.00
2023-01-26T05:03:53.529Z,0.00
2023-01-26T05:04:53.562Z,0.00
2023-01-26T05:05:53.479Z,0.00
2023-01-26T05:06:53.449Z,0.00
2023-01-26T05:07:53.579Z,0.00
2023-01-26T05:08:53.406Z,0.00
2023-01-26T05:09:53.534Z,0.00
2023-01-26T05:10:53.389Z,0.00
2023-01-26T05:11:53.387Z,0.00
2023-01-26T05:12:53.389Z,0.00
2023-01-26T05:13:53.408Z,0.00
2023-01-26T05:14:53.340Z,0.00
2023-01-26T05:15:53.357Z,0.00
2023-01-26T05:16:53.381Z,0.00
2023-01-26T05:17:53.310Z,0.00
2023-01-26T05:18:53.301Z,0.00
2023-01-26T05:19:53.277Z,0.00
2023-01-26T05:20:53.322Z,0.00
2023-01-26T05:21:53.252Z,0.00
2023-01-26T05:22:53.270Z,0.00
2023-01-26T05:23:53.352Z,0.00
2023-01-26T05:24:53.220Z,0.00
2023-01-26T05:25:53.234Z,0.00
2023-01-26T05:26:53.183Z,0.00
2023-01-26T05:27:53.266Z,0.00
2023-01-26T05:28:53.186Z,0.00
2023-01-26T05:29:53.158Z,0.00
2023-01-26T05:30:53.164Z,0.00
2023-01-26T05:31:53.202Z,0.00
2023-01-26T05:32:53.137Z,0.00
2023-01-26T05:33:53.109Z,0.00
2023-01-26T05:34:53.095Z,0.00
2023-01-26T05:35:53.110Z,0.00
2023-01-26T05:36:53.060Z,0.00
2023-01-26T05:37:53.156Z,0.00
2023-01-26T05:38:53.070Z,0.00
2023-01-26T05:39:53.027Z,0.00
2023-01-26T05:40:53.037Z,0.00
2023-01-26T05:41:53.013Z,0.00
2023-01-26T05:42:52.988Z,0.00
2023-01-26T05:43:53.021Z,0.00
2023-01-26T05:44:52.955Z,0.00
2023-01-26T05:45:53.040Z,0.00
2023-01-26T05:46:52.976Z,0.00
2023-01-26T05:47:52.968Z,0.00
2023-01-26T05:48:52.925Z,0.00
2023-01-26T05:49:52.932Z,0.00
2023-01-26T05:50:52.893Z,0.00
2023-01-26T05:51:52.923Z,0.00
2023-01-26T05:52:52.945Z,0.00
2023-01-26T05:53:52.881Z,0.00
2023-01-26T05:54:52.841Z,0.00
2023-01-26T05:55:52.868Z,0.00
2023-01-26T05:56:52.817Z,0.00
2023-01-26T05:57:52.879Z,0.00
2023-01-26T05:58:52.794Z,0.00
2023-01-26T05:59:52.773Z,0.00
2023-01-26T06:00:52.801Z,0.00
2023-01-26T06:01:52.859Z,0.00
2023-01-26T06:02:52.807Z,0.00
2023-01-26T06:03:52.743Z,0.00
2023-01-26T06:04:52.719Z,0.00
2023-01-26T06:05:52.721Z,0.00
2023-01-26T06:06:52.727Z,0.00
2023-01-26T06:07:52.750Z,0.00
2023-01-26T06:08:52.733Z,0.00
2023-01-26T06:09:52.664Z,0.00
2023-01-26T06:10:52.651Z,0.00
2023-01-26T06:11:52.680Z,0.00
2023-01-26T06:12:52.669Z,0.00
2023-01-26T06:13:52.663Z,0.00
2023-01-26T06:14:52.590Z,0.00
2023-01-26T06:15:52.612Z,0.00
2023-01-26T06:16:52.648Z,0.00
2023-01-26T06:17:52.632Z,0.00
2023-01-26T06:18:52.586Z,0.00
2023-01-26T06:19:52.609Z,0.00
2023-01-26T06:20:52.527Z,0.00
2023-01-26T06:21:52.521Z,0.00
2023-01-26T06:22:52.565Z,0.00
2023-01-26T06:23:52.571Z,0.00
2023-01-26T06:24:52.464Z,0.00
2023-01-26T06:25:52.477Z,0.00
2023-01-26T06:26:52.485Z,0.00
2023-01-26T06:27:52.480Z,0.00
2023-01-26T06:28:52.435Z,0.00
2023-01-26T06:29:52.471Z,0.00
2023-01-26T06:30:52.458Z,0.00
2023-01-26T06:31:52.401Z,0.00
2023-01-26T06:32:52.372Z,0.00
2023-01-26T06:33:52.373Z,0.00
2023-01-26T06:34:52.374Z,0.00
2023-01-26T06:35:52.329Z,0.00
2023-01-26T06:36:52.346Z,0.00
2023-01-26T06:37:52.350Z,0.00
2023-01-26T06:38:52.873Z,0.00
2023-01-26T06:39:52.273Z,0.00
2023-01-26T06:40:52.268Z,0.00
2023-01-26T06:41:52.217Z,1.00
2023-01-26T06:42:52.209Z,1.00
2023-01-26T06:43:52.212Z,1.00
2023-01-26T06:44:52.215Z,1.00
2023-01-26T06:45:52.205Z,2.00
2023-01-26T06:46:52.211Z,2.00
2023-01-26T06:47:52.127Z,2.00
2023-01-26T06:48:52.145Z,3.00
2023-01-26T06:49:52.119Z,1.00
2023-01-26T06:50:52.182Z,2.00
2023-01-26T06:51:52.079Z,3.00
2023-01-26T06:52:52.182Z,3.00
2023-01-26T06:53:52.087Z,6.00
2023-01-26T06:54:52.050Z,5.00
2023-01-26T06:55:52.207Z,5.00
2023-01-26T06:56:52.018Z,8.00
2023-01-26T06:57:52.052Z,9.00
2023-01-26T06:58:52.032Z,11.00
2023-01-26T06:59:52.188Z,13.00
2023-01-26T07:00:51.964Z,16.00
2023-01-26T07:01:51.948Z,18.00
2023-01-26T07:02:52.000Z,23.00
2023-01-26T07:03:52.127Z,22.00
2023-01-26T07:04:51.939Z,25.00
2023-01-26T07:05:51.927Z,31.00
2023-01-26T07:06:52.035Z,30.00
2023-01-26T07:07:51.895Z,38.00
2023-01-26T07:08:51.895Z,38.00
2023-01-26T07:09:51.849Z,45.00
2023-01-26T07:10:51.830Z,48.00
2023-01-26T07:11:51.844Z,55.00
2023-01-26T07:12:51.804Z,61.00
2023-01-26T07:13:51.988Z,71.00
2023-01-26T07:14:51.775Z,75.00
2023-01-26T07:15:51.922Z,76.00
2023-01-26T07:16:51.845Z,79.00
2023-01-26T07:17:51.750Z,86.00
2023-01-26T07:18:51.762Z,90.00
2023-01-26T07:19:51.727Z,94.00
2023-01-26T07:20:51.730Z,97.00
2023-01-26T07:21:51.822Z,114.00
2023-01-26T07:22:51.696Z,123.00
2023-01-26T07:23:51.795Z,131.00
2023-01-26T07:24:51.665Z,150.00
2023-01-26T07:25:51.769Z,162.00
2023-01-26T07:26:51.683Z,169.00
2023-01-26T07:27:51.699Z,191.00
2023-01-26T07:28:51.632Z,198.00
2023-01-26T07:29:51.687Z,203.00
2023-01-26T07:30:51.592Z,211.00
2023-01-26T07:31:51.662Z,215.00
2023-01-26T07:32:51.665Z,209.00
2023-01-26T07:33:51.577Z,229.00
2023-01-26T07:34:51.601Z,231.00
2023-01-26T07:35:51.547Z,233.00
2023-01-26T07:36:51.615Z,256.00
2023-01-26T07:37:51.553Z,254.00
2023-01-26T07:38:51.500Z,257.00
2023-01-26T07:39:51.477Z,315.00
2023-01-26T07:40:51.486Z,329.00
2023-01-26T07:41:51.461Z,322.00
2023-01-26T07:42:51.652Z,339.00
2023-01-26T07:43:51.503Z,366.00
2023-01-26T07:44:51.487Z,369.00
2023-01-26T07:45:51.416Z,378.00
2023-01-26T07:46:51.527Z,435.00
2023-01-26T07:47:51.407Z,434.00
2023-01-26T07:48:51.396Z,432.00
2023-01-26T07:49:51.501Z,506.00
2023-01-26T07:50:51.341Z,519.00
2023-01-26T07:51:51.374Z,480.00
2023-01-26T07:52:51.329Z,519.00
2023-01-26T07:53:51.334Z,554.00
2023-01-26T07:54:51.429Z,519.00
2023-01-26T07:55:51.283Z,580.00
2023-01-26T07:56:51.404Z,705.00
2023-01-26T07:57:51.262Z,646.00
2023-01-26T07:58:51.275Z,633.00
2023-01-26T07:59:51.317Z,707.00
2023-01-26T08:00:51.218Z,719.00
2023-01-26T08:01:51.285Z,674.00
2023-01-26T08:02:51.239Z,650.00
2023-01-26T08:03:51.225Z,642.00
2023-01-26T08:04:51.210Z,667.00
2023-01-26T08:05:51.161Z,724.00
2023-01-26T08:06:51.139Z,743.00
2023-01-26T08:07:51.301Z,741.00
2023-01-26T08:08:51.118Z,816.00
2023-01-26T08:09:51.118Z,854.00
2023-01-26T08:10:51.132Z,879.00
2023-01-26T08:11:51.140Z,921.00
2023-01-26T08:12:51.189Z,994.00
2023-01-26T08:13:51.090Z,962.00
2023-01-26T08:14:51.097Z,928.00
2023-01-26T08:15:51.050Z,1010.00
2023-01-26T08:16:51.084Z,1058.00
2023-01-26T08:17:53.492Z,1045.00
2023-01-26T08:18:51.009Z,1072.00
2023-01-26T08:19:51.053Z,1079.00
2023-01-26T08:20:50.968Z,1108.00
2023-01-26T08:21:50.946Z,1169.00
2023-01-26T08:22:50.969Z,1101.00
2023-01-26T08:23:51.001Z,1108.00
2023-01-26T08:24:50.943Z,1225.00
2023-01-26T08:25:51.015Z,1263.00
2023-01-26T08:26:50.902Z,1225.00
2023-01-26T08:27:50.868Z,1254.00
2023-01-26T08:28:50.924Z,1299.00
2023-01-26T08:29:50.894Z,1351.00
2023-01-26T08:30:50.868Z,1380.00
2023-01-26T08:31:51.150Z,1310.00
2023-01-26T08:32:50.855Z,1300.00
2023-01-26T08:33:51.006Z,1367.00
2023-01-26T08:34:50.987Z,1379.00
2023-01-26T08:35:50.791Z,1398.00
2023-01-26T08:36:50.821Z,1480.00
2023-01-26T08:37:50.761Z,1539.00
2023-01-26T08:38:50.820Z,1624.00
2023-01-26T08:39:50.773Z,1686.00
2023-01-26T08:40:50.726Z,1709.00
2023-01-26T08:41:50.765Z,1859.00
2023-01-26T08:42:50.705Z,1913.00
2023-01-26T08:43:50.738Z,1805.00
2023-01-26T08:44:50.700Z,1841.00
2023-01-26T08:45:50.719Z,1849.00
2023-01-26T08:46:50.705Z,1771.00
2023-01-26T08:47:50.631Z,1762.00
2023-01-26T08:48:50.622Z,1734.00
2023-01-26T08:49:50.625Z,1638.00
2023-01-26T08:50:50.599Z,1640.00
2023-01-26T08:51:50.593Z,1717.00
2023-01-26T08:52:50.575Z,1759.00
2023-01-26T08:53:50.617Z,1805.00
2023-01-26T08:54:50.626Z,1772.00
2023-01-26T08:55:50.533Z,1733.00
2023-01-26T08:56:50.700Z,1751.00
2023-01-26T08:57:50.567Z,1790.00
2023-01-26T08:58:50.566Z,1796.00
2023-01-26T08:59:50.496Z,1757.00
2023-01-26T09:00:50.586Z,1802.00
2023-01-26T09:01:51.354Z,1865.00
2023-01-26T09:02:50.687Z,2009.00
2023-01-26T09:03:50.475Z,2192.00
2023-01-26T09:04:50.438Z,2222.00
2023-01-26T09:05:50.445Z,2190.00
2023-01-26T09:06:50.405Z,2234.00
2023-01-26T09:07:50.385Z,2339.00
2023-01-26T09:08:50.393Z,2487.00
2023-01-26T09:09:50.401Z,2649.00
2023-01-26T09:10:50.414Z,2707.00
2023-01-26T09:11:50.337Z,2741.00
2023-01-26T09:12:50.446Z,2655.00
2023-01-26T09:13:50.321Z,2808.00
2023-01-26T09:14:50.345Z,2819.00
2023-01-26T09:15:50.343Z,2703.00
2023-01-26T09:16:50.351Z,2748.00
2023-01-26T09:17:50.308Z,2798.00
2023-01-26T09:18:50.317Z,2714.00
2023-01-26T09:19:50.248Z,2708.00
2023-01-26T09:20:50.234Z,2769.00
2023-01-26T09:21:51.503Z,2799.00
2023-01-26T09:22:50.209Z,2811.00
2023-01-26T09:23:50.272Z,2871.00
2023-01-26T09:24:50.188Z,3039.00
2023-01-26T09:25:50.217Z,2962.00
2023-01-26T09:26:50.139Z,2850.00
2023-01-26T09:27:50.135Z,2760.00
2023-01-26T09:28:50.116Z,2698.00
2023-01-26T09:29:50.234Z,2869.00
2023-01-26T09:30:50.241Z,2966.00
2023-01-26T09:31:50.170Z,2868.00
2023-01-26T09:32:50.205Z,2961.00
2023-01-26T09:33:50.089Z,3072.00
2023-01-26T09:34:50.072Z,3114.00
2023-01-26T09:35:50.117Z,3268.00
2023-01-26T09:36:50.020Z,3222.00
2023-01-26T09:37:50.019Z,3076.00
2023-01-26T09:38:50.012Z,3112.00
2023-01-26T09:39:49.981Z,3199.00
2023-01-26T09:40:50.020Z,3180.00
2023-01-26T09:41:49.985Z,3193.00
2023-01-26T09:42:49.994Z,3179.00
2023-01-26T09:43:49.924Z,3203.00
2023-01-26T09:44:49.952Z,3322.00
2023-01-26T09:45:49.948Z,3242.00
2023-01-26T09:46:49.909Z,3167.00
2023-01-26T09:47:49.880Z,3364.00
2023-01-26T09:48:49.877Z,3410.00
2023-01-26T09:49:49.904Z,3467.00
2023-01-26T09:50:49.899Z,3601.00
2023-01-26T09:51:49.848Z,3669.00
2023-01-26T09:52:49.815Z,3686.00
2023-01-26T09:53:49.962Z,3676.00
2023-01-26T09:54:49.789Z,3772.00
2023-01-26T09:55:49.845Z,3931.00
2023-01-26T09:56:49.761Z,3907.00
2023-01-26T09:57:49.858Z,3754.00
2023-01-26T09:58:49.748Z,3755.00
2023-01-26T09:59:49.742Z,3743.00
2023-01-26T10:00:49.807Z,3633.00
2023-01-26T10:01:49.726Z,3673.00
2023-01-26T10:02:49.731Z,3723.00
2023-01-26T10:03:49.678Z,3688.00
2023-01-26T10:04:49.720Z,3675.00
2023-01-26T10:05:49.658Z,3657.00
2023-01-26T10:06:49.670Z,3626.00
2023-01-26T10:07:49.722Z,3593.00
2023-01-26T10:08:49.647Z,3659.00
2023-01-26T10:09:49.643Z,3721.00
2023-01-26T10:10:49.669Z,3644.00
2023-01-26T10:11:49.620Z,3791.00
2023-01-26T10:12:49.574Z,3870.00
2023-01-26T10:13:49.622Z,3978.00
2023-01-26T10:14:49.549Z,3885.00
2023-01-26T10:15:49.623Z,3877.00
2023-01-26T10:16:49.648Z,4002.00
2023-01-26T10:17:49.516Z,4041.00
2023-01-26T10:18:49.566Z,4073.00
2023-01-26T10:19:49.481Z,4195.00
2023-01-26T10:20:49.505Z,4261.00
2023-01-26T10:21:49.485Z,4116.00
2023-01-26T10:22:49.476Z,3958.00
2023-01-26T10:23:49.497Z,3832.00
2023-01-26T10:24:49.421Z,3812.00
2023-01-26T10:25:49.438Z,3884.00
2023-01-26T10:26:49.470Z,3987.00
2023-01-26T10:27:49.389Z,4033.00
2023-01-26T10:28:49.409Z,4041.00
2023-01-26T10:29:49.378Z,4033.00
2023-01-26T10:30:49.468Z,3974.00
2023-01-26T10:31:49.363Z,3952.00
2023-01-26T10:32:49.412Z,3953.00
2023-01-26T10:33:49.393Z,3883.00
2023-01-26T10:34:49.497Z,3892.00
2023-01-26T10:35:49.319Z,4031.00
2023-01-26T10:36:49.289Z,4179.00
2023-01-26T10:37:49.274Z,4236.00
2023-01-26T10:38:49.250Z,4443.00
2023-01-26T10:39:49.234Z,4592.00
2023-01-26T10:40:49.229Z,4684.00
2023-01-26T10:41:49.205Z,4763.00
2023-01-26T10:42:49.200Z,4780.00
2023-01-26T10:43:49.233Z,4834.00
2023-01-26T10:44:49.171Z,4891.00
2023-01-26T10:45:49.207Z,4894.00
2023-01-26T10:46:49.167Z,4831.00
2023-01-26T10:47:49.154Z,4753.00
2023-01-26T10:48:49.117Z,4785.00
2023-01-26T10:49:49.142Z,4641.00
2023-01-26T10:50:49.124Z,4516.00
2023-01-26T10:51:49.148Z,4548.00
2023-01-26T10:52:49.100Z,4540.00
2023-01-26T10:53:49.105Z,4516.00
2023-01-26T10:54:49.099Z,4480.00
2023-01-26T10:55:49.045Z,4414.00
2023-01-26T10:56:49.071Z,4382.00
2023-01-26T10:57:49.017Z,4405.00
2023-01-26T10:58:49.000Z,4416.00
2023-01-26T10:59:48.963Z,4475.00
2023-01-26T11:00:48.976Z,4493.00
2023-01-26T11:01:49.060Z,4524.00
2023-01-26T11:02:48.978Z,4576.00
2023-01-26T11:03:48.916Z,4758.00
2023-01-26T11:04:48.911Z,4759.00
2023-01-26T11:05:48.905Z,4635.00
2023-01-26T11:06:48.908Z,4533.00
2023-01-26T11:07:48.921Z,4628.00
2023-01-26T11:08:48.901Z,4759.00
2023-01-26T11:09:48.839Z,4758.00
2023-01-26T11:10:48.844Z,4664.00
2023-01-26T11:11:48.843Z,4520.00
2023-01-26T11:12:48.920Z,4503.00
2023-01-26T11:13:48.808Z,4524.00
2023-01-26T11:14:48.794Z,4520.00
2023-01-26T11:15:48.825Z,4441.00
2023-01-26T11:16:48.787Z,4575.00
2023-01-26T11:17:48.948Z,4765.00
2023-01-26T11:18:48.760Z,4691.00
2023-01-26T11:19:48.794Z,4787.00
2023-01-26T11:20:48.737Z,4898.00
2023-01-26T11:21:48.757Z,4926.00
2023-01-26T11:22:48.718Z,5026.00
2023-01-26T11:23:48.753Z,5225.00
2023-01-26T11:24:48.679Z,5477.00
2023-01-26T11:25:48.678Z,5494.00
2023-01-26T11:26:52.882Z,5451.00
2023-01-26T11:27:51.543Z,5635.00
2023-01-26T11:28:51.209Z,5531.00
2023-01-26T11:29:50.628Z,5540.00
2023-01-26T11:30:51.791Z,5509.00
2023-01-26T11:31:50.309Z,5475.00
2023-01-26T11:32:48.641Z,5466.00
2023-01-26T11:33:48.590Z,5468.00
2023-01-26T11:34:49.571Z,5422.00
2023-01-26T11:35:48.556Z,5342.00
2023-01-26T11:36:48.524Z,5329.00
2023-01-26T11:37:48.566Z,5390.00
2023-01-26T11:38:48.480Z,5522.00
2023-01-26T11:39:48.689Z,5498.00
2023-01-26T11:40:48.473Z,5426.00
2023-01-26T11:41:48.486Z,5465.00
2023-01-26T11:42:48.486Z,5330.00
2023-01-26T11:43:48.427Z,5262.00
2023-01-26T11:44:48.451Z,5294.00
2023-01-26T11:45:48.525Z,5316.00
2023-01-26T11:46:48.451Z,5294.00
2023-01-26T11:47:48.399Z,5220.00
2023-01-26T11:48:48.402Z,5140.00
2023-01-26T11:49:48.376Z,5218.00
2023-01-26T11:50:48.340Z,5224.00
2023-01-26T11:51:48.316Z,5198.00
2023-01-26T11:52:48.331Z,5153.00
2023-01-26T11:53:48.386Z,5103.00
2023-01-26T11:54:48.294Z,5184.00
2023-01-26T11:55:48.292Z,5258.00
2023-01-26T11:56:48.280Z,5228.00
2023-01-26T11:57:48.269Z,5191.00
2023-01-26T11:58:48.270Z,5173.00
2023-01-26T11:59:48.279Z,5228.00
2023-01-26T12:00:48.221Z,5269.00
2023-01-26T12:01:48.191Z,5270.00
2023-01-26T12:02:48.197Z,5205.00
2023-01-26T12:03:48.177Z,5136.00
2023-01-26T12:04:48.206Z,5142.00
2023-01-26T12:05:48.156Z,5297.00
2023-01-26T12:06:48.157Z,5381.00
2023-01-26T12:07:48.135Z,5459.00
2023-01-26T12:08:48.101Z,5552.00
2023-01-26T12:09:48.115Z,5447.00
2023-01-26T12:10:48.087Z,5284.00
2023-01-26T12:11:48.067Z,5460.00
2023-01-26T12:12:48.067Z,5537.00
2023-01-26T12:13:48.096Z,5247.00
2023-01-26T12:14:48.043Z,4970.00
2023-01-26T12:15:48.028Z,4916.00
2023-01-26T12:16:48.053Z,5111.00
2023-01-26T12:17:48.061Z,5413.00
2023-01-26T12:18:58.790Z,5329.00
2023-01-26T12:19:48.001Z,5115.00
2023-01-26T12:20:47.965Z,5191.00
2023-01-26T12:21:47.939Z,4972.00
2023-01-26T12:22:47.968Z,4827.00
2023-01-26T12:23:47.970Z,4765.00
2023-01-26T12:25:12.235Z,4629.00
2023-01-26T12:25:47.935Z,4629.00
2023-01-26T12:26:47.892Z,4713.00
2023-01-26T12:27:47.902Z,4609.00
2023-01-26T12:28:47.863Z,4470.00
2023-01-26T12:29:47.846Z,4341.00
2023-01-26T12:30:47.942Z,4406.00
2023-01-26T12:31:47.850Z,4401.00
2023-01-26T12:32:47.843Z,4292.00
2023-01-26T12:33:47.784Z,4377.00
2023-01-26T12:34:47.802Z,4965.00
2023-01-26T12:35:47.772Z,5574.00
2023-01-26T12:36:47.779Z,5899.00
2023-01-26T12:37:47.790Z,5476.00
2023-01-26T12:38:47.715Z,5154.00
2023-01-26T12:39:47.717Z,5298.00
2023-01-26T12:40:47.705Z,5394.00
2023-01-26T12:41:47.712Z,5261.00
2023-01-26T12:42:47.702Z,5385.00
2023-01-26T12:43:47.705Z,5156.00
2023-01-26T12:44:47.648Z,5177.00
2023-01-26T12:45:47.739Z,5167.00
2023-01-26T12:46:47.613Z,5242.00
2023-01-26T12:47:47.601Z,5256.00